KCKM/CKM METAR and TAF weather

Enter ICAO airport designator
Station Type Date Time Source
KCKM METAR 2019/06/26 10:15 UTC NOAA

KCKM 261015Z AUTO 00000KT 10SM OVC033 21/21 A3013 RMK A01


Station Type Date Time Source
KCKM Decoded METAR 2019/06/26 10:15 UTC NOAA

Station name not available
Jun 26, 2019 - 06:15 AM EDT / 2019.06.26 1015 UTC
Wind: Calm:0
Visibility: 10 mile(s):0
Sky conditions: overcast
Temperature: 69 F (21 C)
Dew Point: 69 F (21 C)
Relative Humidity: 100%
Pressure (altimeter): 30.13 in. Hg (1020 hPa)
ob: KCKM 261015Z AUTO 00000KT 10SM OVC033 21/21 A3013 RMK A01
cycle: 10

Station Type Date Time Source
KCKM TAF UTC NOAA

Error!

Example: see airport list